Time;durP1;ratioP1;P1;durP2;ratioP2;P2;SDS_P1;SDS_P2;PMS_P1;PMS_P2;Temp;Humidity;BMP_temperature;BMP_pressure;BME280_temperature;BME280_humidity;BME280_pressure;Samples;Min_cycle;Max_cycle;Signal;HPM_P1;HPM_P2
2022/05/06 00:00:07;;;;;;;8.77;4.88;;;;;;;7.50;38.81;100717.53;5043308;28;20029;-58
2022/05/06 00:02:33;;;;;;;9.55;5.40;;;;;;;7.45;39.49;100726.09;5045842;28;20367;-58
2022/05/06 00:04:59;;;;;;;10.82;5.10;;;;;;;7.46;38.79;100722.66;5054912;28;20060;-58
2022/05/06 00:07:24;;;;;;;8.57;5.05;;;;;;;7.52;38.50;100727.88;5054627;28;20506;-58
2022/05/06 00:09:50;;;;;;;12.88;5.70;;;;;;;7.50;38.68;100725.28;5054887;28;20068;-57
2022/05/06 00:12:18;;;;;;;11.55;4.60;;;;;;;7.44;39.52;100727.81;5054581;28;20478;-58
2022/05/06 00:14:45;;;;;;;9.65;5.18;;;;;;;7.43;38.75;100728.66;5054636;28;20021;-58
2022/05/06 00:17:11;;;;;;;11.18;5.43;;;;;;;7.46;39.00;100723.53;5054744;28;20029;-58
2022/05/06 00:19:37;;;;;;;10.35;4.97;;;;;;;7.49;38.78;100727.84;5054602;28;20484;-58
2022/05/06 00:22:03;;;;;;;10.20;4.97;;;;;;;7.47;38.78;100727.84;5054728;28;20025;-58
2022/05/06 00:24:29;;;;;;;10.52;5.80;;;;;;;7.43;38.97;100726.94;5054385;28;20062;-58
2022/05/06 00:26:58;;;;;;;10.50;5.05;;;;;;;7.47;38.81;100722.69;5054297;28;20461;-58
2022/05/06 00:29:24;;;;;;;9.93;5.20;;;;;;;7.53;39.14;100732.19;5054738;28;20119;-59
2022/05/06 00:31:50;;;;;;;7.63;5.00;;;;;;;7.48;38.01;100723.53;5053616;28;20158;-58
2022/05/06 00:34:16;;;;;;;6.28;4.38;;;;;;;7.57;38.40;100726.19;5054542;28;20088;-58
2022/05/06 00:36:42;;;;;;;7.65;4.38;;;;;;;7.63;38.97;100725.38;5054476;28;20032;-59
2022/05/06 00:39:08;;;;;;;8.77;4.43;;;;;;;7.66;38.19;100735.72;5054172;28;20108;-59
2022/05/06 00:41:34;;;;;;;8.73;4.53;;;;;;;7.68;39.59;100732.31;5054201;28;20025;-59
2022/05/06 00:44:01;;;;;;;9.45;4.50;;;;;;;7.67;39.17;100727.13;5053928;28;20434;-59
2022/05/06 00:46:27;;;;;;;4.65;3.65;;;;;;;7.71;38.07;100723.69;5053216;28;20491;-58
2022/05/06 00:48:55;;;;;;;6.10;3.95;;;;;;;7.71;38.18;100729.75;5054334;28;20098;-58
2022/05/06 00:51:20;;;;;;;7.53;4.03;;;;;;;7.70;38.52;100730.59;5053815;28;20441;-58
2022/05/06 00:53:47;;;;;;;5.65;4.15;;;;;;;7.72;38.38;100726.28;5053797;28;20032;-59
2022/05/06 00:56:14;;;;;;;6.97;3.47;;;;;;;7.67;37.69;100722.84;5054197;28;20047;-59
2022/05/06 00:58:40;;;;;;;12.32;4.10;;;;;;;7.69;37.09;100731.44;5054012;28;20099;-58
2022/05/06 01:01:06;;;;;;;6.53;3.80;;;;;;;7.73;37.98;100734.91;5053480;28;20104;-59
2022/05/06 01:03:32;;;;;;;9.68;4.38;;;;;;;7.75;37.69;100731.50;5033779;28;20033;-63
2022/05/06 01:05:58;;;;;;;6.10;3.75;;;;;;;7.76;38.45;100730.63;5038972;28;20033;-58
2022/05/06 01:08:24;;;;;;;5.20;3.90;;;;;;;7.80;38.86;100728.09;5044350;28;20155;-58
2022/05/06 01:10:49;;;;;;;6.85;3.83;;;;;;;7.85;38.62;100727.25;5053581;28;20037;-59
2022/05/06 01:13:15;;;;;;;7.60;3.72;;;;;;;7.82;36.74;100734.09;5053609;28;20033;-59
2022/05/06 01:15:41;;;;;;;6.70;3.30;;;;;;;7.83;37.28;100725.53;5053684;28;20029;-59
2022/05/06 01:18:12;;;;;;;7.78;3.55;;;;;;;7.87;36.95;100733.28;5053423;28;20083;-59
2022/05/06 01:20:42;;;;;;;7.93;3.97;;;;;;;7.91;37.68;100745.34;5053262;28;20087;-59
2022/05/06 01:23:08;;;;;;;7.75;3.97;;;;;;;7.87;36.81;100735.84;5051444;28;20080;-59
2022/05/06 01:25:33;;;;;;;5.63;3.40;;;;;;;7.91;36.73;100734.19;5037203;28;20048;-58
2022/05/06 01:28:06;;;;;;;5.70;3.42;;;;;;;7.54;37.29;100672.03;5053270;28;20017;-57
2022/05/06 01:30:37;;;;;;;6.07;3.50;;;;;;;7.95;37.01;100741.06;5052130;28;20032;-58
2022/05/06 01:33:08;;;;;;;9.07;3.95;;;;;;;7.93;36.84;100756.53;5053085;28;20067;-58
2022/05/06 01:35:46;;;;;;;6.13;3.53;;;;;;;7.64;37.32;100675.53;5053287;28;20402;-58
2022/05/06 01:38:18;;;;;;;6.03;3.35;;;;;;;7.67;37.81;100670.41;5068495;28;20025;-57
2022/05/06 01:40:47;;;;;;;7.00;3.55;;;;;;;7.73;37.67;100681.63;5052588;28;20045;-58
2022/05/06 01:43:16;;;;;;;5.57;3.20;;;;;;;8.09;37.04;100756.63;5036648;28;20032;-58
2022/05/06 01:45:43;;;;;;;7.45;3.72;;;;;;;8.09;37.90;100736.88;5051719;28;20024;-58
2022/05/06 01:48:10;;;;;;;6.47;3.30;;;;;;;8.05;38.33;100719.66;5049011;28;20394;-58
2022/05/06 01:50:39;;;;;;;5.55;3.70;;;;;;;8.20;37.10;100743.81;5051676;28;20021;-58
2022/05/06 01:53:07;;;;;;;6.63;3.60;;;;;;;8.24;37.21;100742.97;5052697;28;20052;-58
2022/05/06 01:55:32;;;;;;;10.13;3.58;;;;;;;8.25;37.49;100748.13;5052788;28;20029;-58
2022/05/06 01:57:58;;;;;;;5.80;3.38;;;;;;;8.25;36.81;100742.97;5052177;28;20024;-58
2022/05/06 02:00:24;;;;;;;5.70;3.92;;;;;;;8.28;37.46;100748.16;5052646;28;20044;-57
2022/05/06 02:02:50;;;;;;;5.35;3.63;;;;;;;8.28;36.73;100749.88;5052675;28;20025;-58
2022/05/06 02:05:19;;;;;;;7.45;3.67;;;;;;;8.33;36.17;100737.00;5052525;28;20482;-58
2022/05/06 02:07:49;;;;;;;8.02;4.13;;;;;;;8.29;36.71;100731.81;5052442;28;20053;-59
2022/05/06 02:10:15;;;;;;;8.98;4.05;;;;;;;8.33;37.46;100745.59;5052655;28;20041;-58
2022/05/06 02:12:41;;;;;;;6.15;3.60;;;;;;;8.38;36.02;100743.91;5068021;28;20394;-58
2022/05/06 02:15:08;;;;;;;5.80;3.47;;;;;;;8.39;37.13;100740.44;5052359;28;20033;-58
2022/05/06 02:17:34;;;;;;;6.82;3.90;;;;;;;8.42;36.01;100748.22;5052617;28;20025;-58
2022/05/06 02:20:00;;;;;;;7.82;4.07;;;;;;;8.38;36.33;100748.19;5052431;28;20167;-58
2022/05/06 02:22:29;;;;;;;8.10;3.88;;;;;;;8.34;36.35;100749.91;5052755;28;20474;-59
2022/05/06 02:24:55;;;;;;;6.55;3.72;;;;;;;8.37;37.09;100742.16;5052414;28;20061;-59
2022/05/06 02:27:21;;;;;;;7.13;3.83;;;;;;;8.38;35.67;100749.06;5052283;28;20478;-59
2022/05/06 02:35:16;;;;;;;7.38;4.10;;;;;;;8.40;36.62;100746.47;5052317;28;20072;-58
2022/05/06 02:37:42;;;;;;;7.75;3.50;;;;;;;8.50;37.32;100752.59;5052378;28;20071;-58
2022/05/06 02:40:11;;;;;;;5.93;3.65;;;;;;;8.49;36.74;100756.88;5051794;28;20037;-58
2022/05/06 02:42:37;;;;;;;7.15;3.60;;;;;;;8.32;36.11;100754.16;5051543;28;20447;-58
2022/05/06 02:45:04;;;;;;;6.82;4.07;;;;;;;8.29;36.09;100755.03;5051969;28;20025;-59
2022/05/06 02:47:30;;;;;;;6.70;4.28;;;;;;;8.50;37.05;100758.59;5052415;28;20025;-58
2022/05/06 02:49:56;;;;;;;9.75;4.93;;;;;;;8.55;36.32;100762.09;5052402;28;20490;-58
2022/05/06 02:52:22;;;;;;;9.73;3.55;;;;;;;8.59;36.76;100763.81;5052128;28;20051;-58
2022/05/06 02:54:48;;;;;;;7.22;3.83;;;;;;;8.57;35.69;100756.91;5052115;28;20043;-58
2022/05/06 02:57:14;;;;;;;6.30;3.53;;;;;;;8.73;36.51;100766.44;5052020;28;20032;-58
2022/05/06 02:59:39;;;;;;;6.25;3.30;;;;;;;8.76;36.73;100766.44;5052349;28;20029;-57
2022/05/06 03:02:06;;;;;;;6.63;3.47;;;;;;;8.86;38.08;100775.09;5052306;28;20025;-56
2022/05/06 03:04:31;;;;;;;9.27;3.83;;;;;;;8.91;37.10;100775.97;5051914;28;20036;-57
2022/05/06 03:06:58;;;;;;;6.88;3.47;;;;;;;8.87;36.37;100769.06;5051889;28;20029;-58
2022/05/06 03:09:23;;;;;;;9.82;3.47;;;;;;;8.97;36.94;100770.81;5055300;28;20486;-57
2022/05/06 03:11:49;;;;;;;9.70;4.80;;;;;;;8.91;35.56;100775.13;5055910;28;20052;-57
2022/05/06 03:14:15;;;;;;;7.85;3.88;;;;;;;8.93;36.57;100775.97;5055983;28;20036;-57
2022/05/06 03:16:40;;;;;;;7.75;3.47;;;;;;;8.99;36.18;100773.41;5055754;28;20386;-57
2022/05/06 03:19:06;;;;;;;8.65;3.70;;;;;;;9.01;36.27;100776.88;5055919;28;20074;-57
2022/05/06 03:21:32;;;;;;;9.40;3.50;;;;;;;9.00;35.46;100776.88;5055718;28;20021;-58
2022/05/06 03:23:59;;;;;;;13.25;5.05;;;;;;;8.95;35.97;100771.66;5055777;28;20032;-57
2022/05/06 03:26:24;;;;;;;8.05;4.18;;;;;;;8.86;35.62;100776.81;5055809;28;20514;-58
2022/05/06 03:28:52;;;;;;;5.93;3.80;;;;;;;8.94;36.17;100769.97;5055090;28;20103;-57
2022/05/06 03:31:18;;;;;;;8.05;3.65;;;;;;;8.96;36.06;100776.88;5055675;28;20040;-57
2022/05/06 03:33:45;;;;;;;8.18;3.75;;;;;;;8.94;35.64;100778.56;5055524;28;20032;-57
2022/05/06 03:36:11;;;;;;;10.27;3.55;;;;;;;8.98;35.22;100782.03;5055437;28;20109;-57
2022/05/06 03:38:36;;;;;;;8.75;4.13;;;;;;;9.00;35.79;100782.88;5055322;28;20025;-57
2022/05/06 03:41:02;;;;;;;8.05;3.72;;;;;;;9.63;35.53;100783.00;5055536;28;20060;-56
2022/05/06 03:43:28;;;;;;;9.68;3.80;;;;;;;9.97;35.29;100787.28;5055240;28;20134;-57
2022/05/06 03:45:54;;;;;;;8.25;3.67;;;;;;;9.79;34.33;100790.75;5055301;28;20021;-57
2022/05/06 03:48:24;;;;;;;7.82;4.07;;;;;;;9.97;34.47;100772.59;5055175;28;20074;-57
2022/05/06 03:53:37;;;;;;;12.32;3.85;;;;;;;10.24;33.80;100785.53;5054984;28;20043;-57
2022/05/06 03:56:04;;;;;;;7.30;3.45;;;;;;;10.46;34.36;100792.41;5055009;28;20044;-57
2022/05/06 03:58:30;;;;;;;8.63;3.58;;;;;;;10.56;34.63;100794.94;5054793;28;20099;-57
2022/05/06 04:00:55;;;;;;;9.63;3.42;;;;;;;10.76;33.86;100795.75;5054948;28;20070;-57
2022/05/06 04:03:21;;;;;;;8.07;3.90;;;;;;;10.90;32.87;100792.22;5054805;28;20033;-58
2022/05/06 04:05:47;;;;;;;7.82;3.78;;;;;;;10.96;33.21;100784.41;5054966;28;20033;-58
2022/05/06 04:08:12;;;;;;;7.78;3.45;;;;;;;11.26;33.62;100785.97;5054665;28;20550;-57
2022/05/06 04:10:38;;;;;;;10.63;4.32;;;;;;;11.32;33.05;100791.13;5054781;28;20098;-57
2022/05/06 04:13:04;;;;;;;6.25;3.50;;;;;;;11.48;32.97;100783.25;5054745;28;20021;-58
2022/05/06 04:15:32;;;;;;;6.68;3.45;;;;;;;11.29;32.45;100795.47;5054462;28;20026;-58
2022/05/06 04:17:59;;;;;;;9.20;3.72;;;;;;;11.30;32.91;100781.63;5054904;28;20029;-58
2022/05/06 04:25:52;;;;;;;9.77;3.55;;;;;;;11.81;32.72;100789.03;5054588;28;20398;-57
2022/05/06 04:28:18;;;;;;;8.82;3.75;;;;;;;11.80;32.03;100793.38;5041598;28;20395;-58
2022/05/06 04:30:43;;;;;;;8.18;4.47;;;;;;;11.67;32.04;100787.41;5034658;28;20026;-59
2022/05/06 04:33:09;;;;;;;11.82;3.50;;;;;;;11.74;31.96;100793.41;5049635;28;20360;-59
2022/05/06 04:35:34;;;;;;;7.47;4.20;;;;;;;12.04;32.25;100787.13;5053597;28;20067;-59
2022/05/06 04:38:00;;;;;;;11.05;4.10;;;;;;;12.01;30.98;100786.28;5054102;28;20040;-58
2022/05/06 04:40:26;;;;;;;6.70;4.10;;;;;;;12.38;31.73;100791.09;5054351;28;20029;-59
2022/05/06 04:42:52;;;;;;;5.63;3.75;;;;;;;12.66;32.34;100796.00;5054116;28;20029;-59
2022/05/06 04:45:17;;;;;;;7.63;3.88;;;;;;;12.89;31.70;100786.16;5053660;28;20556;-58
2022/05/06 04:47:43;;;;;;;5.93;3.88;;;;;;;13.18;31.71;100792.72;5054086;28;20486;-58
2022/05/06 04:50:09;;;;;;;10.32;4.63;;;;;;;13.53;32.50;100791.34;5054040;28;20024;-58
2022/05/06 04:52:34;;;;;;;8.77;4.03;;;;;;;13.55;30.67;100788.72;5053944;28;20025;-57
2022/05/06 04:55:00;;;;;;;11.88;4.35;;;;;;;13.87;30.75;100790.78;5054072;28;20471;-57
2022/05/06 04:57:26;;;;;;;6.45;3.83;;;;;;;13.89;29.23;100790.75;5054094;28;20032;-59
2022/05/06 04:59:51;;;;;;;11.85;4.30;;;;;;;13.81;29.89;100788.31;5050451;28;20027;-60
2022/05/06 05:02:17;;;;;;;10.18;4.05;;;;;;;13.67;29.44;100791.13;5050190;28;20051;-57
2022/05/06 05:04:44;;;;;;;8.40;3.78;;;;;;;13.29;29.25;100785.59;5044408;28;20121;-59
2022/05/06 05:07:10;;;;;;;9.93;3.95;;;;;;;13.47;30.13;100783.63;5044682;28;20079;-61
2022/05/06 05:09:36;;;;;;;7.78;3.83;;;;;;;13.43;30.03;100787.16;5042072;28;20072;-62
2022/05/06 05:12:03;;;;;;;12.95;4.15;;;;;;;13.66;30.11;100788.56;5047629;28;20037;-61
2022/05/06 05:14:28;;;;;;;8.50;4.20;;;;;;;13.55;29.86;100783.50;5047007;28;20056;-62
2022/05/06 05:16:54;;;;;;;11.60;4.40;;;;;;;13.26;29.96;100790.00;5044570;28;20466;-62
2022/05/06 05:19:20;;;;;;;9.05;4.15;;;;;;;13.03;31.73;100785.13;5045026;28;20331;-62
2022/05/06 05:21:47;;;;;;;12.02;4.25;;;;;;;13.38;30.52;100791.56;5053027;28;20029;-61
2022/05/06 05:24:13;;;;;;;10.65;4.07;;;;;;;13.52;30.18;100788.75;5053076;28;20035;-61
2022/05/06 05:26:38;;;;;;;9.02;4.03;;;;;;;13.49;29.73;100784.47;5048781;28;20037;-61
2022/05/06 05:29:04;;;;;;;8.43;4.07;;;;;;;13.53;30.27;100786.13;5052312;28;20478;-62
2022/05/06 05:31:30;;;;;;;14.15;4.13;;;;;;;13.59;30.33;100793.84;5052855;28;20045;-62
2022/05/06 05:33:56;;;;;;;7.03;4.32;;;;;;;13.63;30.29;100777.28;5053157;28;20037;-62
2022/05/06 05:36:21;;;;;;;7.68;4.10;;;;;;;13.61;29.38;100793.81;5053257;28;20489;-62
2022/05/06 05:38:47;;;;;;;13.38;4.35;;;;;;;13.50;30.10;100790.53;5053134;28;20029;-63
2022/05/06 05:41:13;;;;;;;15.43;4.43;;;;;;;13.19;30.03;100803.97;5053095;28;20024;-62
2022/05/06 05:49:07;;;;;;;13.88;4.30;;;;;;;13.62;30.56;100790.34;5052882;28;20036;-63
2022/05/06 05:51:33;;;;;;;9.95;3.90;;;;;;;13.64;30.19;100796.38;5051114;28;20032;-63
2022/05/06 05:53:59;;;;;;;9.35;4.00;;;;;;;13.75;28.67;100798.78;5050491;28;20027;-61
2022/05/06 05:56:25;;;;;;;8.43;3.53;;;;;;;13.61;28.55;100786.88;5050666;28;20029;-62
2022/05/06 05:58:51;;;;;;;6.65;2.78;;;;;;;13.92;28.89;100798.50;5050896;28;20025;-61
2022/05/06 06:01:17;;;;;;;7.28;3.65;;;;;;;13.94;28.82;100801.97;5051273;28;20079;-62
2022/05/06 06:03:43;;;;;;;11.27;3.53;;;;;;;13.81;28.30;100799.56;5050488;28;20024;-62
2022/05/06 06:06:09;;;;;;;5.82;3.40;;;;;;;14.00;28.88;100801.00;5051682;28;20100;-63
2022/05/06 06:08:35;;;;;;;5.85;3.28;;;;;;;14.03;27.87;100806.16;5051038;28;20136;-62
2022/05/06 06:11:02;;;;;;;9.73;3.95;;;;;;;14.27;28.55;100799.66;5052149;28;20112;-63
2022/05/06 06:13:30;;;;;;;6.65;3.10;;;;;;;13.99;27.64;100794.91;5052185;28;20036;-63
2022/05/06 06:15:56;;;;;;;8.25;3.30;;;;;;;14.22;28.45;100799.69;5052196;28;20017;-64
2022/05/06 06:18:26;;;;;;;9.23;3.67;;;;;;;14.41;27.83;100808.06;5050718;28;20074;-62
2022/05/06 06:20:52;;;;;;;7.40;3.58;;;;;;;14.55;27.87;100813.00;5051970;28;20055;-62
2022/05/06 06:23:18;;;;;;;7.85;3.60;;;;;;;14.49;26.91;100808.78;5052419;28;20029;-61
2022/05/06 06:25:44;;;;;;;9.05;4.20;;;;;;;14.39;27.00;100812.41;5052122;28;20021;-62
2022/05/06 06:28:10;;;;;;;5.55;3.17;;;;;;;14.62;28.17;100811.16;5051917;28;20025;-62
2022/05/06 06:30:35;;;;;;;9.20;3.97;;;;;;;14.84;27.26;100806.38;5052148;28;20487;-63
2022/05/06 06:33:01;;;;;;;8.65;4.07;;;;;;;15.07;28.19;100805.03;5052087;28;20021;-63
2022/05/06 06:35:27;;;;;;;10.93;3.88;;;;;;;14.78;27.61;100814.34;5052299;28;20036;-63
2022/05/06 06:37:52;;;;;;;7.25;3.70;;;;;;;15.13;28.07;100807.47;5039307;28;20421;-63
2022/05/06 06:40:18;;;;;;;5.15;3.60;;;;;;;15.17;27.74;100803.91;5050583;28;20033;-63
2022/05/06 06:42:46;;;;;;;5.80;3.70;;;;;;;15.47;27.55;100806.72;5052113;28;20052;-63
2022/05/06 06:45:11;;;;;;;6.28;3.30;;;;;;;15.54;26.81;100798.69;5055173;28;20021;-63
2022/05/06 06:47:37;;;;;;;7.05;3.88;;;;;;;15.57;25.88;100804.75;5054963;28;20032;-62
2022/05/06 06:50:03;;;;;;;9.13;3.55;;;;;;;15.59;26.46;100806.44;5055502;28;20100;-62
2022/05/06 06:52:29;;;;;;;6.47;3.88;;;;;;;15.68;25.90;100806.19;5055623;28;20033;-63
2022/05/06 06:54:57;;;;;;;8.23;3.60;;;;;;;15.65;26.07;100806.28;5070841;28;20047;-62
2022/05/06 06:57:22;;;;;;;8.75;4.03;;;;;;;15.94;26.34;100809.09;5055665;28;20025;-62
2022/05/06 06:59:48;;;;;;;10.13;3.78;;;;;;;15.79;26.21;100810.31;5054861;28;20099;-62
2022/05/06 07:02:13;;;;;;;7.05;3.60;;;;;;;15.58;25.15;100811.69;5048753;28;20483;-62
2022/05/06 07:04:39;;;;;;;5.40;3.40;;;;;;;15.76;25.92;100807.75;5045883;28;20327;-61
2022/05/06 07:12:33;;;;;;;5.15;3.53;;;;;;;16.60;24.66;100803.84;5055296;28;20029;-63
2022/05/06 07:15:01;;;;;;;7.70;3.88;;;;;;;16.53;25.05;100801.41;5054714;28;20498;-64
2022/05/06 07:17:29;;;;;;;9.20;3.85;;;;;;;16.97;25.70;100790.56;5055107;28;20025;-62
2022/05/06 07:19:54;;;;;;;5.88;3.85;;;;;;;17.33;24.53;100799.94;5054866;28;20029;-63
2022/05/06 07:22:20;;;;;;;8.13;4.20;;;;;;;17.41;24.18;100797.94;5055131;28;20021;-62
2022/05/06 07:24:46;;;;;;;6.18;3.92;;;;;;;17.01;23.97;100786.09;5054539;28;20032;-62
2022/05/06 07:27:11;;;;;;;9.10;4.07;;;;;;;17.02;24.51;100793.91;5050643;28;20072;-63
2022/05/06 07:29:37;;;;;;;8.40;4.40;;;;;;;17.16;24.29;100790.88;5044530;28;20037;-62
2022/05/06 07:32:03;;;;;;;7.85;4.30;;;;;;;16.89;24.14;100789.97;5054880;28;20021;-62
2022/05/06 07:34:28;;;;;;;12.95;8.85;;;;;;;16.79;24.14;100804.16;5054583;28;20039;-61
2022/05/06 07:36:54;;;;;;;7.40;4.40;;;;;;;16.80;24.05;100780.59;5035032;28;20021;-62
2022/05/06 07:39:20;;;;;;;11.02;4.55;;;;;;;17.32;24.44;100783.38;5053442;28;20032;-61
2022/05/06 07:41:46;;;;;;;5.45;3.78;;;;;;;17.39;24.63;100786.69;5054661;28;20029;-61
2022/05/06 07:44:11;;;;;;;4.88;3.90;;;;;;;17.42;24.41;100782.19;5054388;28;20021;-62
2022/05/06 07:46:38;;;;;;;8.80;4.65;;;;;;;17.16;24.20;100774.28;5054608;28;20494;-63
2022/05/06 07:49:05;;;;;;;8.80;4.53;;;;;;;17.53;23.50;100791.44;5054847;28;20036;-63
2022/05/06 07:51:31;;;;;;;9.35;4.88;;;;;;;17.45;24.09;100788.25;5054665;28;20029;-62
2022/05/06 07:53:57;;;;;;;7.22;4.15;;;;;;;17.17;24.73;100782.13;5053576;28;20043;-62
2022/05/06 07:56:23;;;;;;;6.40;4.47;;;;;;;16.96;23.30;100783.63;5053605;28;20037;-62
2022/05/06 07:58:50;;;;;;;6.00;4.68;;;;;;;16.95;23.65;100779.28;5054385;28;20139;-63
2022/05/06 08:01:17;;;;;;;7.28;4.35;;;;;;;17.17;23.66;100774.28;5054278;28;20089;-62
2022/05/06 08:06:26;;;;;;;7.30;4.40;;;;;;;16.66;23.22;100785.34;5054241;28;20043;-62
2022/05/06 08:08:52;;;;;;;6.07;4.03;;;;;;;16.69;23.75;100780.91;5053922;28;20378;-61
2022/05/06 08:11:18;;;;;;;7.22;4.30;;;;;;;16.67;24.83;100781.84;5054000;28;20040;-62
2022/05/06 08:13:44;;;;;;;9.57;4.65;;;;;;;16.63;23.85;100788.06;5054162;28;20032;-61
2022/05/06 08:16:10;;;;;;;9.60;4.70;;;;;;;16.59;23.35;100776.84;5053982;28;20029;-62
2022/05/06 08:18:36;;;;;;;9.63;4.72;;;;;;;16.55;23.05;100778.66;5054276;28;20021;-62
2022/05/06 08:21:03;;;;;;;6.15;4.10;;;;;;;16.65;23.21;100775.81;5053789;28;20109;-62
2022/05/06 08:23:29;;;;;;;6.93;4.05;;;;;;;16.59;23.19;100768.13;5053600;28;20429;-62
2022/05/06 08:25:54;;;;;;;7.47;4.15;;;;;;;17.01;23.86;100758.16;5052501;28;20021;-61
2022/05/06 08:28:20;;;;;;;6.90;4.05;;;;;;;17.38;23.18;100764.84;5040716;28;20091;-62
2022/05/06 08:30:47;;;;;;;6.65;3.60;;;;;;;17.25;23.18;100759.16;5052423;28;20052;-62
2022/05/06 08:33:14;;;;;;;6.18;3.70;;;;;;;17.23;22.48;100757.50;5053654;28;20426;-62
2022/05/06 08:35:43;;;;;;;8.57;3.30;;;;;;;17.03;23.00;100763.34;5053534;28;20086;-62
2022/05/06 08:38:10;;;;;;;5.38;3.17;;;;;;;17.53;23.37;100765.25;5053660;28;20061;-62
2022/05/06 08:40:36;;;;;;;7.75;3.53;;;;;;;17.86;22.61;100757.19;5053951;28;20108;-63
2022/05/06 08:43:04;;;;;;;5.57;3.15;;;;;;;17.87;22.24;100736.19;5053852;28;20513;-63
2022/05/06 08:51:00;;;;;;;4.30;2.20;;;;;;;16.88;22.06;100748.97;5053462;28;20469;-62
2022/05/06 08:53:29;;;;;;;3.20;1.80;;;;;;;17.36;21.92;100752.75;5053531;28;20159;-63
2022/05/06 08:55:57;;;;;;;2.55;1.85;;;;;;;17.21;21.80;100740.97;5053302;28;20060;-62
2022/05/06 08:58:24;;;;;;;5.30;2.15;;;;;;;17.25;22.01;100743.44;5053336;28;20098;-62
2022/05/06 09:00:59;;;;;;;5.63;2.67;;;;;;;17.36;24.27;100742.25;5052978;28;20025;-62
2022/05/06 09:03:24;;;;;;;3.40;2.88;;;;;;;17.73;23.58;100734.03;5053170;28;20074;-61
2022/05/06 09:05:55;;;;;;;6.57;3.10;;;;;;;17.94;23.22;100736.81;5052573;28;20048;-62
2022/05/06 09:08:21;;;;;;;6.72;3.40;;;;;;;18.02;23.57;100740.03;5052635;28;20124;-63
2022/05/06 09:11:07;;;;;;;5.03;3.53;;;;;;;17.59;23.83;100731.88;5053091;28;20037;-62
2022/05/06 09:13:34;;;;;;;4.93;3.42;;;;;;;17.72;23.80;100744.56;5052873;28;20025;-62
2022/05/06 09:16:40;;;;;;;5.72;3.58;;;;;;;17.51;23.74;100738.28;5034562;28;20053;-61
2022/05/06 09:19:09;;;;;;;6.63;3.50;;;;;;;17.10;23.75;100741.31;5033173;28;20108;-62
2022/05/06 09:21:36;;;;;;;5.45;3.25;;;;;;;17.16;24.77;100748.13;5049300;28;20032;-62
2022/05/06 09:24:19;;;;;;;3.88;3.20;;;;;;;16.93;23.61;100686.03;5052551;28;20029;-62
2022/05/06 09:27:21;;;;;;;4.75;3.15;;;;;;;17.24;24.17;100761.81;5052369;28;20032;-61
2022/05/06 09:29:49;;;;;;;6.00;3.35;;;;;;;17.43;24.16;100731.53;5042994;28;20041;-61
2022/05/06 09:32:23;;;;;;;7.05;3.65;;;;;;;17.43;24.43;100734.16;5054367;28;20021;-61
2022/05/06 09:34:53;;;;;;;5.75;3.22;;;;;;;17.49;23.87;100729.63;5052398;28;20033;-62
2022/05/06 09:37:38;;;;;;;6.82;3.50;;;;;;;16.42;23.31;100692.75;5052330;28;20494;-63
2022/05/06 09:40:04;;;;;;;5.80;3.70;;;;;;;17.27;23.67;100729.47;5052328;28;20037;-63
2022/05/06 09:42:30;;;;;;;7.63;3.42;;;;;;;17.29;23.85;100727.63;5052310;28;20075;-62
2022/05/06 09:44:56;;;;;;;6.07;3.20;;;;;;;17.48;23.62;100728.75;5051918;28;20071;-62
2022/05/06 09:47:24;;;;;;;5.25;3.10;;;;;;;17.46;23.82;100724.47;5052001;28;20033;-62
2022/05/06 09:49:50;;;;;;;4.78;3.38;;;;;;;17.55;24.22;100722.38;5051760;28;20044;-62
2022/05/06 09:52:16;;;;;;;6.70;3.33;;;;;;;17.59;24.25;100729.25;5052088;28;20455;-63
2022/05/06 09:54:44;;;;;;;5.22;3.60;;;;;;;17.53;23.72;100711.13;5051606;28;20124;-63
2022/05/06 09:57:15;;;;;;;8.07;3.47;;;;;;;17.45;23.43;100665.16;5051593;28;20389;-63
2022/05/06 09:59:41;;;;;;;4.72;3.05;;;;;;;17.63;22.76;100719.53;5051790;28;20055;-63
2022/05/06 10:02:08;;;;;;;9.20;3.55;;;;;;;17.60;24.17;100696.91;5051562;28;20040;-63
2022/05/06 10:04:38;;;;;;;7.90;3.75;;;;;;;17.82;23.10;100713.66;5051824;28;20025;-62
2022/05/06 10:07:25;;;;;;;6.00;3.50;;;;;;;17.75;24.89;100719.09;5046614;28;20478;-62
2022/05/06 10:09:57;;;;;;;5.82;3.67;;;;;;;17.63;22.58;100708.19;5034770;28;20033;-62
2022/05/06 10:12:24;;;;;;;10.13;3.40;;;;;;;17.65;23.52;100712.47;5045990;28;20470;-61
2022/05/06 10:14:51;;;;;;;6.93;3.45;;;;;;;17.69;22.80;100706.22;5051972;28;20044;-61
2022/05/06 10:17:48;;;;;;;5.63;3.70;;;;;;;17.60;22.73;100714.41;5051429;28;20057;-62
2022/05/06 10:20:49;;;;;;;9.95;3.80;;;;;;;17.71;22.43;100703.53;5051699;28;20041;-62
2022/05/06 10:23:18;;;;;;;7.20;4.05;;;;;;;17.62;23.25;100694.22;5010084;28;20030;-62
2022/05/06 10:25:43;;;;;;;5.13;3.50;;;;;;;17.87;22.85;100695.97;5044106;28;20852;-62
2022/05/06 10:34:14;;;;;;;5.45;4.38;;;;;;;17.66;22.85;100697.59;5032478;28;20037;-62
2022/05/06 10:36:53;;;;;;;5.43;3.95;;;;;;;17.58;22.72;100698.72;5048568;28;20021;-61
2022/05/06 10:39:22;;;;;;;8.23;4.30;;;;;;;17.45;23.26;100637.19;5051933;28;20029;-62
2022/05/06 10:42:07;;;;;;;6.50;4.00;;;;;;;17.98;24.16;100688.63;5052029;28;20154;-61
2022/05/06 10:44:38;;;;;;;6.22;3.88;;;;;;;17.58;23.06;100683.00;5052058;28;20147;-61
2022/05/06 10:47:24;;;;;;;7.88;3.83;;;;;;;17.77;23.05;100693.72;5052339;28;20052;-61
2022/05/06 10:49:51;;;;;;;5.32;3.92;;;;;;;17.43;23.02;100634.63;5052215;28;20048;-62
2022/05/06 10:52:25;;;;;;;7.10;3.78;;;;;;;17.80;23.87;100692.75;5052378;28;20079;-62
2022/05/06 10:54:54;;;;;;;10.30;4.55;;;;;;;17.64;23.51;100636.53;5051919;28;20108;-62
2022/05/06 10:57:22;;;;;;;7.25;4.00;;;;;;;17.61;23.00;100674.19;5051927;28;20029;-61
2022/05/06 10:59:57;;;;;;;7.32;4.00;;;;;;;17.73;22.84;100675.53;5052051;28;20032;-61
2022/05/06 11:02:24;;;;;;;7.60;4.07;;;;;;;17.99;23.44;100676.41;5051956;28;20025;-61
2022/05/06 11:04:54;;;;;;;5.10;3.60;;;;;;;17.94;23.20;100663.44;5050447;28;20402;-61
2022/05/06 11:07:19;;;;;;;8.57;4.38;;;;;;;18.11;23.33;100683.78;5051712;28;20053;-62
2022/05/06 11:09:47;;;;;;;5.07;3.80;;;;;;;17.91;22.99;100684.53;5040119;28;20545;-61
2022/05/06 11:12:35;;;;;;;5.10;4.05;;;;;;;17.91;21.64;100689.75;5044512;28;20025;-64
2022/05/06 11:15:03;;;;;;;5.25;3.80;;;;;;;17.81;23.09;100677.88;5052146;28;20033;-62
2022/05/06 11:17:34;;;;;;;4.65;3.67;;;;;;;17.54;22.65;100678.78;5051955;28;20021;-61
2022/05/06 11:20:04;;;;;;;6.93;3.75;;;;;;;17.75;23.08;100669.31;5051656;28;20025;-62
2022/05/06 11:22:33;;;;;;;5.53;3.65;;;;;;;17.96;22.97;100666.88;5052161;28;20386;-62
2022/05/06 11:25:00;;;;;;;6.82;3.67;;;;;;;17.65;22.49;100673.16;5051338;28;20029;-61
2022/05/06 11:27:26;;;;;;;4.20;3.40;;;;;;;17.52;23.15;100653.56;5051426;28;20025;-62
2022/05/06 11:29:59;;;;;;;6.68;3.47;;;;;;;17.73;23.07;100657.19;5053889;28;20033;-61
2022/05/06 11:32:29;;;;;;;8.40;4.03;;;;;;;17.63;23.11;100653.16;5055423;28;20025;-61
2022/05/06 11:35:13;;;;;;;6.43;3.40;;;;;;;17.32;23.70;100607.94;5055301;28;20032;-61
2022/05/06 11:37:41;;;;;;;8.65;3.60;;;;;;;17.74;22.94;100651.91;5054106;28;20387;-61
2022/05/06 11:40:32;;;;;;;6.22;3.47;;;;;;;17.47;22.63;100614.41;5055028;28;20025;-61
2022/05/06 11:42:58;;;;;;;;;;;;;;;17.57;23.30;100644.63;5055747;28;20037;-62
2022/05/06 11:48:13;;;;;;;6.22;3.88;;;;;;;17.80;23.46;100642.97;5055112;28;20025;-62
2022/05/06 11:50:41;;;;;;;5.88;3.38;;;;;;;17.86;23.26;100640.09;5055065;28;20037;-62
2022/05/06 11:53:14;;;;;;;4.32;3.22;;;;;;;17.60;23.35;100589.50;5054864;28;20033;-61
2022/05/06 11:55:46;;;;;;;4.72;3.33;;;;;;;18.03;23.07;100631.66;5054924;28;20024;-61
2022/05/06 11:58:14;;;;;;;4.65;3.53;;;;;;;17.97;23.70;100579.47;5034793;28;20068;-62
2022/05/06 12:00:40;;;;;;;5.60;4.38;;;;;;;17.95;22.46;100644.19;5050783;28;20035;-62
2022/05/06 12:03:06;;;;;;;5.47;4.00;;;;;;;17.91;22.92;100638.22;5054684;28;20115;-63
2022/05/06 12:05:37;;;;;;;4.18;3.75;;;;;;;17.79;22.37;100578.34;5054171;28;20405;-62
2022/05/06 12:08:03;;;;;;;6.97;4.35;;;;;;;17.76;22.13;100621.25;5054130;28;20494;-62
2022/05/06 12:10:32;;;;;;;5.55;3.75;;;;;;;18.18;22.63;100622.34;5054665;28;20071;-62